createdAt,value
2018-02-17T02:59:41.129Z,9.50
2018-02-17T03:00:44.260Z,10.00
2018-02-17T03:01:47.221Z,13.50
2018-02-17T03:02:50.190Z,12.50
2018-02-17T03:03:53.159Z,11.50
2018-02-17T03:04:56.895Z,11.00
2018-02-17T03:06:00.608Z,12.00
2018-02-17T03:07:03.422Z,11.00
2018-02-17T03:08:06.240Z,11.00
2018-02-17T03:09:09.149Z,11.00
2018-02-17T03:10:12.067Z,12.00
2018-02-17T03:11:15.014Z,10.00
2018-02-17T03:12:18.197Z,10.50
2018-02-17T03:13:21.128Z,12.00
2018-02-17T03:14:24.027Z,10.50
2018-02-17T03:15:27.095Z,10.50
2018-02-17T03:16:30.113Z,10.50
2018-02-17T03:17:33.150Z,10.00
2018-02-17T03:18:36.405Z,10.00
2018-02-17T03:19:39.365Z,12.00
2018-02-17T03:20:42.366Z,10.50
2018-02-17T03:21:45.304Z,11.50
2018-02-17T03:22:48.309Z,10.50
2018-02-17T03:23:51.266Z,12.50
2018-02-17T03:24:54.562Z,15.00
2018-02-17T03:25:57.557Z,13.00
2018-02-17T03:27:00.541Z,13.00
2018-02-17T03:28:03.631Z,15.50
2018-02-17T03:29:06.659Z,13.00
2018-02-17T03:30:09.705Z,13.50
2018-02-17T03:31:12.964Z,10.00
2018-02-17T03:32:15.934Z,12.00
2018-02-17T03:33:18.947Z,9.50
2018-02-17T03:34:22.027Z,11.00
2018-02-17T03:35:24.997Z,13.50
2018-02-17T03:36:27.997Z,11.50
2018-02-17T03:37:31.311Z,11.50
2018-02-17T03:38:34.281Z,13.00
2018-02-17T03:39:37.409Z,13.50
2018-02-17T03:40:40.368Z,12.00
2018-02-17T03:41:43.300Z,9.50
2018-02-17T03:42:46.245Z,9.50
2018-02-17T03:43:49.552Z,13.00
2018-02-17T03:44:52.493Z,10.50
2018-02-17T03:45:55.443Z,11.00
2018-02-17T03:46:58.441Z,12.50
2018-02-17T03:48:01.414Z,12.00
2018-02-17T03:49:04.390Z,9.50
2018-02-17T03:50:07.774Z,10.00
2018-02-17T03:51:10.796Z,7.50
2018-02-17T03:52:13.768Z,10.00
2018-02-17T03:53:16.728Z,10.00
2018-02-17T03:54:19.750Z,11.50
2018-02-17T03:55:22.745Z,13.00
2018-02-17T03:56:26.086Z,12.50
2018-02-17T03:57:29.050Z,10.50
2018-02-17T03:58:32.092Z,12.00
2018-02-17T03:59:35.012Z,12.00
2018-02-17T04:00:37.998Z,9.50
2018-02-17T04:01:40.980Z,9.50
2018-02-17T04:02:44.183Z,9.50
2018-02-17T04:03:47.142Z,10.00
2018-02-17T04:04:50.031Z,11.00
2018-02-17T04:05:52.988Z,12.00
2018-02-17T04:06:55.879Z,8.50
2018-02-17T04:07:58.872Z,12.50
2018-02-17T04:09:02.084Z,12.00
2018-02-17T04:10:04.994Z,10.00
2018-02-17T04:11:08.623Z,10.00
2018-02-17T04:12:11.627Z,8.50
2018-02-17T04:13:14.611Z,9.00
2018-02-17T04:14:17.583Z,13.50
2018-02-17T04:15:21.013Z,12.00
2018-02-17T04:16:23.953Z,12.00
2018-02-17T04:17:26.948Z,12.00
2018-02-17T04:18:29.883Z,11.50
2018-02-17T04:19:32.851Z,10.00
2018-02-17T04:20:35.834Z,10.00
2018-02-17T04:21:39.293Z,14.50
2018-02-17T04:22:42.282Z,14.00
2018-02-17T04:23:45.142Z,10.50
2018-02-17T04:24:47.993Z,14.50
2018-02-17T04:25:50.859Z,15.00
2018-02-17T04:26:53.724Z,13.50
2018-02-17T04:27:56.920Z,14.50
2018-02-17T04:28:59.870Z,13.50
2018-02-17T04:30:02.896Z,13.00
2018-02-17T04:31:05.838Z,15.00
2018-02-17T04:32:08.791Z,13.50
2018-02-17T04:33:11.764Z,14.00
2018-02-17T04:34:14.749Z,13.00
2018-02-17T04:35:17.715Z,11.00
2018-02-17T04:36:20.712Z,12.00
2018-02-17T04:37:23.756Z,11.50
2018-02-17T04:38:26.902Z,12.00
2018-02-17T04:39:30.026Z,12.50
2018-02-17T04:40:34.448Z,10.00
2018-02-17T04:41:37.586Z,10.50
2018-02-17T04:42:40.752Z,10.50
2018-02-17T04:43:43.948Z,10.00
2018-02-17T04:44:47.066Z,11.00
2018-02-17T04:45:50.221Z,10.00
2018-02-17T04:46:53.665Z,8.50
2018-02-17T04:47:56.839Z,10.00
2018-02-17T04:49:00.948Z,10.00
2018-02-17T04:50:04.636Z,9.00
2018-02-17T04:51:07.754Z,12.00
2018-02-17T04:52:11.513Z,10.50
2018-02-17T04:53:14.952Z,12.50
2018-02-17T04:54:18.063Z,7.00
2018-02-17T04:55:21.242Z,9.00
2018-02-17T04:56:24.399Z,10.00
2018-02-17T04:57:27.579Z,8.50
2018-02-17T04:58:30.806Z,8.00
2018-02-17T04:59:34.269Z,11.50
2018-02-17T05:00:37.388Z,10.00
2018-02-17T05:01:40.520Z,10.50
2018-02-17T05:02:43.647Z,10.00
2018-02-17T05:03:46.763Z,7.50
2018-02-17T05:04:49.960Z,9.50
2018-02-17T05:05:53.382Z,8.50
2018-02-17T05:06:56.478Z,8.00
2018-02-17T05:07:59.616Z,10.00
2018-02-17T05:09:02.805Z,12.00
2018-02-17T05:10:05.907Z,8.00
2018-02-17T05:11:09.038Z,10.00
2018-02-17T05:12:12.527Z,10.50
2018-02-17T05:13:15.677Z,9.50
2018-02-17T05:14:18.846Z,8.50
2018-02-17T05:15:21.957Z,8.50
2018-02-17T05:16:24.977Z,9.50
2018-02-17T05:17:28.138Z,9.00
2018-02-17T05:18:31.548Z,8.50
2018-02-17T05:19:34.650Z,11.50
2018-02-17T05:20:37.835Z,8.50
2018-02-17T05:21:40.997Z,8.00
2018-02-17T05:22:44.087Z,10.50
2018-02-17T05:23:47.298Z,12.50
2018-02-17T05:24:50.812Z,12.00
2018-02-17T05:25:53.993Z,11.50
2018-02-17T05:26:57.145Z,12.50
2018-02-17T05:28:00.245Z,16.00
2018-02-17T05:29:03.390Z,16.50
2018-02-17T05:30:06.532Z,17.50
2018-02-17T05:31:10.077Z,16.00
2018-02-17T05:32:13.115Z,13.00
2018-02-17T05:33:16.183Z,14.50
2018-02-17T05:34:19.290Z,16.00
2018-02-17T05:35:22.743Z,14.00
2018-02-17T05:36:25.795Z,12.50
2018-02-17T05:37:29.222Z,12.00
2018-02-17T05:38:32.347Z,10.50
2018-02-17T05:39:35.518Z,10.50
2018-02-17T05:40:38.637Z,10.00
2018-02-17T05:41:42.686Z,10.00
2018-02-17T05:42:45.789Z,10.00
2018-02-17T05:43:49.236Z,10.50
2018-02-17T05:44:52.376Z,11.50
2018-02-17T05:45:55.582Z,9.50
2018-02-17T05:46:58.765Z,12.00
2018-02-17T05:48:01.898Z,13.00
2018-02-17T05:49:05.039Z,14.00
2018-02-17T05:50:08.469Z,14.00
2018-02-17T05:51:11.636Z,10.50
2018-02-17T05:52:14.580Z,12.50
2018-02-17T05:53:17.562Z,13.00
2018-02-17T05:54:20.569Z,9.50
2018-02-17T05:55:23.572Z,13.00
2018-02-17T05:56:26.826Z,13.00
2018-02-17T05:57:29.782Z,19.00
2018-02-17T05:58:32.767Z,13.00
2018-02-17T05:59:35.699Z,13.00
2018-02-17T06:00:38.670Z,13.00
2018-02-17T06:01:41.620Z,15.00
2018-02-17T06:02:44.930Z,10.50
2018-02-17T06:03:47.877Z,12.00
2018-02-17T06:04:50.963Z,11.50
2018-02-17T06:05:53.960Z,11.50
2018-02-17T06:06:56.905Z,10.00
2018-02-17T06:07:59.891Z,11.00
2018-02-17T06:09:02.944Z,13.50
2018-02-17T06:10:05.891Z,10.00
2018-02-17T06:11:08.933Z,10.00
2018-02-17T06:12:11.860Z,11.00
2018-02-17T06:13:14.762Z,11.00
2018-02-17T06:14:17.792Z,12.00
2018-02-17T06:15:21.143Z,16.50
2018-02-17T06:16:24.072Z,12.50
2018-02-17T06:17:26.979Z,12.00
2018-02-17T06:18:29.899Z,11.00
2018-02-17T06:19:32.824Z,12.50
2018-02-17T06:20:35.803Z,10.00
2018-02-17T06:21:39.067Z,12.50
2018-02-17T06:22:42.056Z,10.00
2018-02-17T06:23:45.005Z,13.50
2018-02-17T06:24:47.966Z,10.00
2018-02-17T06:25:50.894Z,11.00
2018-02-17T06:26:53.838Z,12.50
2018-02-17T06:27:57.085Z,10.00
2018-02-17T06:29:00.015Z,13.50
2018-02-17T06:30:02.966Z,11.00
2018-02-17T06:31:06.010Z,14.00
2018-02-17T06:32:08.986Z,14.50
2018-02-17T06:33:11.956Z,14.00
2018-02-17T06:34:15.237Z,14.00
2018-02-17T06:35:18.574Z,19.00
2018-02-17T06:36:21.534Z,19.00
2018-02-17T06:37:24.537Z,18.00
2018-02-17T06:38:27.493Z,20.00
2018-02-17T06:39:30.387Z,17.50
2018-02-17T06:40:33.671Z,15.00
2018-02-17T06:41:37.460Z,15.50
2018-02-17T06:42:40.431Z,12.50
2018-02-17T06:43:43.425Z,12.00
2018-02-17T06:44:46.410Z,12.00
2018-02-17T06:45:49.414Z,13.00
2018-02-17T06:46:52.676Z,12.00
2018-02-17T06:47:55.594Z,10.00
2018-02-17T06:48:58.589Z,14.00
2018-02-17T06:50:01.527Z,12.00
2018-02-17T06:51:04.434Z,11.50
2018-02-17T06:52:07.396Z,15.50
2018-02-17T06:53:10.653Z,16.00
2018-02-17T06:54:13.650Z,18.50
2018-02-17T06:55:16.664Z,18.50
2018-02-17T06:56:19.784Z,18.50
2018-02-17T06:57:22.782Z,18.50
2018-02-17T06:58:25.760Z,16.00
2018-02-17T06:59:29.121Z,16.50
2018-02-17T07:00:32.137Z,14.50
2018-02-17T07:01:35.146Z,14.50
2018-02-17T07:02:38.158Z,12.50
2018-02-17T07:03:41.122Z,12.00
2018-02-17T07:04:44.109Z,12.00
2018-02-17T07:05:47.350Z,11.00
2018-02-17T07:06:50.329Z,10.00
2018-02-17T07:07:53.298Z,14.00
2018-02-17T07:08:56.272Z,10.50
2018-02-17T07:09:59.256Z,14.00
2018-02-17T07:11:02.287Z,14.00
2018-02-17T07:12:05.561Z,15.00
2018-02-17T07:13:08.534Z,13.50
2018-02-17T07:14:11.507Z,14.00
2018-02-17T07:15:14.467Z,12.50
2018-02-17T07:16:17.437Z,11.50
2018-02-17T07:17:20.407Z,12.00
2018-02-17T07:18:23.650Z,13.50
2018-02-17T07:19:26.649Z,11.50
2018-02-17T07:20:29.604Z,9.50
2018-02-17T07:21:32.683Z,9.50
2018-02-17T07:22:35.681Z,14.50
2018-02-17T07:23:38.656Z,14.00
2018-02-17T07:24:42.179Z,12.00
2018-02-17T07:25:45.172Z,11.50
2018-02-17T07:26:48.266Z,15.50
2018-02-17T07:27:51.234Z,14.50
2018-02-17T07:28:54.400Z,9.50
2018-02-17T07:29:57.387Z,11.50
2018-02-17T07:31:00.672Z,12.00
2018-02-17T07:32:03.641Z,10.00
2018-02-17T07:33:06.684Z,12.00
2018-02-17T07:34:09.669Z,14.00
2018-02-17T07:35:12.646Z,8.50
2018-02-17T07:36:15.779Z,10.00
2018-02-17T07:37:19.107Z,10.00
2018-02-17T07:38:22.129Z,6.00
2018-02-17T07:39:25.161Z,9.00
2018-02-17T07:40:28.136Z,8.00
2018-02-17T07:41:31.161Z,10.00
2018-02-17T07:42:34.133Z,10.50
2018-02-17T07:43:37.219Z,8.00
2018-02-17T07:44:40.237Z,7.50
2018-02-17T07:45:43.381Z,10.50
2018-02-17T07:46:46.398Z,7.00
2018-02-17T07:47:49.458Z,5.50
2018-02-17T07:48:52.650Z,11.00
2018-02-17T07:49:56.287Z,9.00
2018-02-17T07:50:59.214Z,4.00
2018-02-17T07:52:02.184Z,7.00
2018-02-17T07:53:05.167Z,5.50
2018-02-17T07:54:08.243Z,15.00
2018-02-17T07:55:11.226Z,10.50
2018-02-17T07:56:14.570Z,4.00
2018-02-17T07:57:17.507Z,11.00
2018-02-17T07:58:20.449Z,6.00
2018-02-17T07:59:23.431Z,11.00
2018-02-17T08:00:26.740Z,5.50
2018-02-17T08:01:29.730Z,7.50
2018-02-17T08:02:33.029Z,8.00
2018-02-17T08:03:36.146Z,8.00
2018-02-17T08:04:39.132Z,8.00
2018-02-17T08:05:42.136Z,9.00
2018-02-17T08:06:45.124Z,6.50
2018-02-17T08:07:48.138Z,11.00
2018-02-17T08:08:51.558Z,8.00
2018-02-17T08:09:54.590Z,7.00
2018-02-17T08:10:57.731Z,8.50
2018-02-17T08:12:00.692Z,7.00
2018-02-17T08:13:03.653Z,7.50
2018-02-17T08:14:06.598Z,10.50
2018-02-17T08:15:09.894Z,8.00
2018-02-17T08:16:13.129Z,11.50
2018-02-17T08:17:16.147Z,8.50
2018-02-17T08:18:19.315Z,9.50
2018-02-17T08:19:22.317Z,9.00
2018-02-17T08:20:25.831Z,10.00
2018-02-17T08:21:29.269Z,9.50
2018-02-17T08:22:32.254Z,9.50
2018-02-17T08:23:35.255Z,10.00
2018-02-17T08:24:38.224Z,13.50
2018-02-17T08:25:41.247Z,12.00
2018-02-17T08:26:44.194Z,10.00
2018-02-17T08:27:47.396Z,10.00
2018-02-17T08:28:50.291Z,8.50
2018-02-17T08:29:53.247Z,10.00
2018-02-17T08:30:56.264Z,7.50
2018-02-17T08:31:59.189Z,12.00
2018-02-17T08:33:02.285Z,11.00
2018-02-17T08:34:05.515Z,11.50
2018-02-17T08:35:08.420Z,12.00
2018-02-17T08:36:11.428Z,12.00
2018-02-17T08:37:14.350Z,13.50
2018-02-17T08:38:17.268Z,9.00
2018-02-17T08:39:20.078Z,11.00
2018-02-17T08:40:23.168Z,12.00
2018-02-17T08:41:25.992Z,10.00
2018-02-17T08:42:28.812Z,13.50
2018-02-17T08:43:31.672Z,11.00
2018-02-17T08:44:34.482Z,10.00
2018-02-17T08:45:37.305Z,13.50
2018-02-17T08:46:40.395Z,7.00
2018-02-17T08:47:43.472Z,8.50
2018-02-17T08:48:46.390Z,10.50
2018-02-17T08:49:49.428Z,10.00
2018-02-17T08:50:52.350Z,7.00
2018-02-17T08:51:55.284Z,12.00
2018-02-17T08:52:58.491Z,12.00
2018-02-17T08:54:01.377Z,9.50
2018-02-17T08:55:04.394Z,11.50
2018-02-17T08:56:07.353Z,11.00
2018-02-17T08:57:10.314Z,10.00
2018-02-17T08:58:13.320Z,7.50
2018-02-17T08:59:16.617Z,10.50
2018-02-17T09:00:19.683Z,12.00
2018-02-17T09:01:22.686Z,12.50
2018-02-17T09:02:25.764Z,11.50
2018-02-17T09:03:28.850Z,13.00
2018-02-17T09:04:31.903Z,11.50
2018-02-17T09:05:35.181Z,12.50
2018-02-17T09:06:38.143Z,15.00
2018-02-17T09:07:41.251Z,11.50
2018-02-17T09:08:44.220Z,10.50
2018-02-17T09:09:47.269Z,11.50
2018-02-17T09:10:50.243Z,10.50
2018-02-17T09:11:53.664Z,10.00
2018-02-17T09:12:56.594Z,12.00
2018-02-17T09:13:59.516Z,12.50
2018-02-17T09:15:02.438Z,12.50
2018-02-17T09:16:05.315Z,12.00
2018-02-17T09:17:08.226Z,11.00
2018-02-17T09:18:11.293Z,12.50
2018-02-17T09:19:14.231Z,11.00
2018-02-17T09:20:17.123Z,9.00
2018-02-17T09:21:20.037Z,14.50
2018-02-17T09:22:22.990Z,11.00
2018-02-17T09:23:25.908Z,10.50
2018-02-17T09:24:29.169Z,13.00
2018-02-17T09:25:32.221Z,10.00
2018-02-17T09:26:35.262Z,11.50
2018-02-17T09:27:38.385Z,9.50
2018-02-17T09:28:41.389Z,9.00
2018-02-17T09:29:44.389Z,10.50
2018-02-17T09:30:47.405Z,10.50
2018-02-17T09:31:50.736Z,13.00
2018-02-17T09:32:53.938Z,15.00
2018-02-17T09:33:57.264Z,10.50
2018-02-17T09:35:00.276Z,12.00
2018-02-17T09:36:03.477Z,12.50
2018-02-17T09:37:06.394Z,10.00
2018-02-17T09:38:09.302Z,14.00
2018-02-17T09:39:12.236Z,12.00
2018-02-17T09:40:15.186Z,12.00
2018-02-17T09:41:18.126Z,10.00
2018-02-17T09:42:21.593Z,10.50
2018-02-17T09:43:24.921Z,14.50
2018-02-17T09:44:27.907Z,11.50
2018-02-17T09:45:30.921Z,12.50
2018-02-17T09:46:33.868Z,12.00
2018-02-17T09:47:36.904Z,16.00
2018-02-17T09:48:40.340Z,13.50
2018-02-17T09:49:43.315Z,8.50
2018-02-17T09:50:46.302Z,15.00
2018-02-17T09:51:49.280Z,11.50
2018-02-17T09:52:52.318Z,10.00
2018-02-17T09:53:55.450Z,11.00
2018-02-17T09:54:58.782Z,11.50
2018-02-17T09:56:01.880Z,8.50
2018-02-17T09:57:04.900Z,10.50
2018-02-17T09:58:07.983Z,13.50
2018-02-17T09:59:11.076Z,12.00
2018-02-17T10:00:14.094Z,16.00
2018-02-17T10:01:17.514Z,15.50
2018-02-17T10:02:20.709Z,14.00
2018-02-17T10:03:23.696Z,12.50
2018-02-17T10:04:26.774Z,10.50
2018-02-17T10:05:29.830Z,13.00
2018-02-17T10:06:32.853Z,10.00
2018-02-17T10:07:36.689Z,10.00
2018-02-17T10:08:39.665Z,10.00
2018-02-17T10:09:42.662Z,12.00
2018-02-17T10:10:45.715Z,11.00
2018-02-17T10:11:49.241Z,12.00
2018-02-17T10:12:52.680Z,10.50
2018-02-17T10:13:57.142Z,15.50
2018-02-17T10:15:00.189Z,14.50
2018-02-17T10:16:03.169Z,14.00
2018-02-17T10:17:07.402Z,12.50
2018-02-17T10:18:10.499Z,12.00
2018-02-17T10:19:13.597Z,12.00
2018-02-17T10:20:17.410Z,10.50
2018-02-17T10:21:20.351Z,12.00
2018-02-17T10:22:23.682Z,12.00
2018-02-17T10:23:26.581Z,11.00
2018-02-17T10:24:29.593Z,12.00
2018-02-17T10:25:32.591Z,9.50
2018-02-17T10:26:36.062Z,10.50
2018-02-17T10:27:39.212Z,10.00
2018-02-17T10:28:42.409Z,13.50
2018-02-17T10:29:46.633Z,9.00
2018-02-17T10:30:49.773Z,12.00
2018-02-17T10:31:53.214Z,14.50
2018-02-17T10:32:57.770Z,12.50
2018-02-17T10:34:00.780Z,11.00
2018-02-17T10:35:04.341Z,14.00
2018-02-17T10:36:07.316Z,15.00
2018-02-17T10:37:10.327Z,15.00
2018-02-17T10:38:13.482Z,12.50
2018-02-17T10:39:16.884Z,13.50
2018-02-17T10:40:19.880Z,10.00
2018-02-17T10:41:23.015Z,13.00
2018-02-17T10:42:26.152Z,11.00
2018-02-17T10:43:29.581Z,11.00
2018-02-17T10:44:32.528Z,13.50
2018-02-17T10:45:36.073Z,14.00
2018-02-17T10:46:39.760Z,13.00
2018-02-17T10:47:42.924Z,10.50
2018-02-17T10:48:46.228Z,12.00
2018-02-17T10:49:49.396Z,11.50
2018-02-17T10:50:52.844Z,13.00
2018-02-17T10:51:56.325Z,13.50
2018-02-17T10:52:59.948Z,12.50
2018-02-17T10:54:03.188Z,12.00
2018-02-17T10:55:08.244Z,15.00
2018-02-17T10:56:11.735Z,9.00
2018-02-17T10:57:14.821Z,10.50
2018-02-17T10:58:18.264Z,10.00
2018-02-17T10:59:21.620Z,10.50
2018-02-17T11:00:24.645Z,10.50
2018-02-17T11:01:27.895Z,12.50
2018-02-17T11:02:31.685Z,14.00
2018-02-17T11:03:35.469Z,10.00
2018-02-17T11:04:39.411Z,11.50
2018-02-17T11:05:42.485Z,10.50
2018-02-17T11:06:45.671Z,11.50
2018-02-17T11:07:49.105Z,12.00
2018-02-17T11:08:52.368Z,10.00
2018-02-17T11:09:55.965Z,11.00
2018-02-17T11:10:59.555Z,11.00
2018-02-17T11:12:02.576Z,10.00
2018-02-17T11:13:06.176Z,13.00
2018-02-17T11:14:09.832Z,10.00
2018-02-17T11:15:13.204Z,8.00
2018-02-17T11:16:17.279Z,11.50
2018-02-17T11:17:21.556Z,9.50
2018-02-17T11:18:24.764Z,11.50
2018-02-17T11:19:28.442Z,10.00
2018-02-17T11:20:32.256Z,11.50
2018-02-17T11:21:35.477Z,11.50
2018-02-17T11:22:38.675Z,8.00
2018-02-17T11:23:42.471Z,12.50
2018-02-17T11:24:46.189Z,12.00
2018-02-17T11:25:50.353Z,11.50
2018-02-17T11:26:53.401Z,9.00
2018-02-17T11:27:58.362Z,14.00
2018-02-17T11:29:02.432Z,13.00
2018-02-17T11:30:05.910Z,16.00
2018-02-17T11:31:09.942Z,10.00
2018-02-17T11:32:13.807Z,9.50
2018-02-17T11:33:17.634Z,11.50
2018-02-17T11:34:21.698Z,8.00
2018-02-17T11:35:26.775Z,10.50
2018-02-17T11:36:31.342Z,9.50
2018-02-17T11:37:34.427Z,10.00
2018-02-17T11:38:38.367Z,9.00
2018-02-17T11:39:41.282Z,9.00
2018-02-17T11:40:44.856Z,10.00
2018-02-17T11:41:49.253Z,7.00
2018-02-17T11:42:53.393Z,12.00
2018-02-17T11:43:58.313Z,8.00
2018-02-17T11:45:02.044Z,9.00
2018-02-17T11:46:06.996Z,6.00
2018-02-17T11:47:10.443Z,9.50
2018-02-17T11:48:14.844Z,10.50
2018-02-17T11:49:19.426Z,10.00
2018-02-17T11:50:22.920Z,9.00
2018-02-17T11:51:27.759Z,9.50
2018-02-17T11:52:32.584Z,10.50
2018-02-17T11:53:37.149Z,9.00
2018-02-17T11:54:41.876Z,9.00
2018-02-17T11:55:45.329Z,11.00
2018-02-17T11:56:48.821Z,10.50
2018-02-17T11:57:52.078Z,10.00
2018-02-17T11:58:55.897Z,13.50
2018-02-17T12:00:00.082Z,10.00
2018-02-17T12:01:04.206Z,8.50
2018-02-17T12:02:09.070Z,8.00
2018-02-17T12:03:13.191Z,10.00
2018-02-17T12:04:17.622Z,10.00
2018-02-17T12:05:20.894Z,10.50
2018-02-17T12:06:25.233Z,11.50
2018-02-17T12:07:30.243Z,10.50
2018-02-17T12:08:36.845Z,12.00
2018-02-17T12:09:43.718Z,11.00
2018-02-17T12:10:48.545Z,12.00
2018-02-17T12:11:53.603Z,10.00
2018-02-17T12:12:57.131Z,10.00
2018-02-17T12:14:01.506Z,11.50
2018-02-17T12:15:05.946Z,8.00
2018-02-17T12:16:09.595Z,12.00
2018-02-17T12:17:12.816Z,10.00
2018-02-17T12:18:18.459Z,10.00
2018-02-17T12:19:21.573Z,9.00
2018-02-17T12:20:25.070Z,11.50
2018-02-17T12:21:28.494Z,12.00
2018-02-17T12:22:33.283Z,12.50
2018-02-17T12:23:38.829Z,12.50
2018-02-17T12:24:43.363Z,10.00
2018-02-17T12:25:48.107Z,12.50
2018-02-17T12:26:52.339Z,8.50
2018-02-17T12:27:57.102Z,9.50
2018-02-17T12:29:01.831Z,10.00
2018-02-17T12:30:05.810Z,8.50
2018-02-17T12:31:09.134Z,8.00
2018-02-17T12:32:13.156Z,11.50
2018-02-17T12:33:17.656Z,10.00
2018-02-17T12:34:22.339Z,8.50
2018-02-17T12:35:27.290Z,9.50
2018-02-17T12:36:32.861Z,8.00
2018-02-17T12:37:37.402Z,8.50
2018-02-17T12:38:41.256Z,7.50
2018-02-17T12:39:45.899Z,8.00
2018-02-17T12:40:50.376Z,8.00
2018-02-17T12:41:53.730Z,8.00
2018-02-17T12:42:57.796Z,10.00
2018-02-17T12:44:02.072Z,10.00
2018-02-17T12:45:05.658Z,12.00
2018-02-17T12:46:10.447Z,11.50
2018-02-17T12:47:14.106Z,8.50
2018-02-17T12:48:16.991Z,11.00
2018-02-17T12:49:21.190Z,10.50
2018-02-17T12:50:24.566Z,9.50
2018-02-17T12:51:28.539Z,8.00
2018-02-17T12:52:33.343Z,11.50
2018-02-17T12:53:37.446Z,9.50
2018-02-17T12:54:41.327Z,10.00
2018-02-17T12:55:45.281Z,10.00
2018-02-17T12:56:48.946Z,10.50
2018-02-17T12:57:52.016Z,8.00
2018-02-17T12:58:56.357Z,8.50
2018-02-17T12:59:59.792Z,8.50
2018-02-17T13:01:04.551Z,7.00
2018-02-17T13:02:08.503Z,8.50
2018-02-17T13:03:12.352Z,7.00
2018-02-17T13:04:15.997Z,9.00
2018-02-17T13:05:20.497Z,8.50
2018-02-17T13:06:23.676Z,11.00
2018-02-17T13:07:27.141Z,7.00
2018-02-17T13:08:30.454Z,8.00
2018-02-17T13:09:34.221Z,11.50
2018-02-17T13:10:37.773Z,8.00
2018-02-17T13:11:41.937Z,10.00
2018-02-17T13:12:47.999Z,10.00
2018-02-17T13:13:53.458Z,9.50
2018-02-17T13:14:58.195Z,8.00
2018-02-17T13:16:03.287Z,9.50
2018-02-17T13:17:08.183Z,10.50
2018-02-17T13:18:13.546Z,9.00
2018-02-17T13:19:16.898Z,9.50
2018-02-17T13:20:20.223Z,8.50
2018-02-17T13:21:24.267Z,9.00
2018-02-17T13:22:27.660Z,7.00
2018-02-17T13:23:31.966Z,5.50
2018-02-17T13:24:36.676Z,8.50
2018-02-17T13:25:41.800Z,4.50
2018-02-17T13:26:46.319Z,10.50
2018-02-17T13:27:50.360Z,8.00
2018-02-17T13:28:55.300Z,9.00
2018-02-17T13:29:59.920Z,8.00
2018-02-17T13:31:05.220Z,7.00
2018-02-17T13:32:11.163Z,8.00
2018-02-17T13:33:16.730Z,8.00
2018-02-17T13:34:23.892Z,10.50
2018-02-17T13:35:29.599Z,6.50
2018-02-17T13:36:33.734Z,6.00
2018-02-17T13:37:36.951Z,8.00
2018-02-17T13:38:42.008Z,7.50
2018-02-17T13:39:48.231Z,11.00
2018-02-17T13:40:56.415Z,6.50
2018-02-17T13:42:01.118Z,7.50
2018-02-17T13:43:05.534Z,8.00
2018-02-17T13:44:11.478Z,8.50
2018-02-17T13:45:16.713Z,8.50
2018-02-17T13:46:21.678Z,8.50
2018-02-17T13:47:28.423Z,8.00
2018-02-17T13:48:35.602Z,10.00
2018-02-17T13:49:41.621Z,8.00
2018-02-17T13:50:49.120Z,8.00
2018-02-17T13:51:54.216Z,10.50
2018-02-17T13:52:59.817Z,8.00
2018-02-17T13:54:05.279Z,8.00
2018-02-17T13:55:10.396Z,8.00
2018-02-17T13:56:15.577Z,10.00
2018-02-17T13:57:20.382Z,9.50
2018-02-17T13:58:25.805Z,8.00
2018-02-17T13:59:30.232Z,8.25
2018-02-17T14:00:34.574Z,7.25
2018-02-17T14:01:39.016Z,5.75
2018-02-17T14:02:43.289Z,8.75
2018-02-17T14:03:47.728Z,10.25
2018-02-17T14:04:51.511Z,7.75
2018-02-17T14:05:56.639Z,7.25
2018-02-17T14:07:01.876Z,9.75
2018-02-17T14:08:06.492Z,9.25
2018-02-17T14:09:11.459Z,8.75
2018-02-17T14:10:15.869Z,5.75
2018-02-17T14:11:20.928Z,9.75
2018-02-17T14:12:26.138Z,9.75
2018-02-17T14:13:31.635Z,7.25
2018-02-17T14:14:37.007Z,8.25
2018-02-17T14:15:41.813Z,9.75
2018-02-17T14:16:46.578Z,9.75
2018-02-17T14:17:51.342Z,5.75
2018-02-17T14:18:54.535Z,7.75
2018-02-17T14:19:59.031Z,10.00
2018-02-17T14:21:03.293Z,9.00
2018-02-17T14:22:07.360Z,9.50
2018-02-17T14:23:12.121Z,9.00
2018-02-17T14:24:15.502Z,10.00
2018-02-17T14:25:20.239Z,8.00
2018-02-17T14:26:25.930Z,6.50
2018-02-17T14:27:30.981Z,6.00
2018-02-17T14:28:35.898Z,5.00
2018-02-17T14:29:39.802Z,7.00
2018-02-17T14:30:43.442Z,6.00
2018-02-17T14:31:48.616Z,9.50
2018-02-17T14:32:52.868Z,6.00
2018-02-17T14:33:58.158Z,9.50
2018-02-17T14:35:01.180Z,5.00
2018-02-17T14:36:04.784Z,8.00
2018-02-17T14:37:08.945Z,8.00
2018-02-17T14:38:13.277Z,4.50
2018-02-17T14:39:19.990Z,6.50
2018-02-17T14:40:24.921Z,7.00
2018-02-17T14:41:29.273Z,8.00
2018-02-17T14:42:34.371Z,6.00
2018-02-17T14:43:39.315Z,7.00
2018-02-17T14:44:45.155Z,10.00
2018-02-17T14:45:51.532Z,9.00
2018-02-17T14:46:55.809Z,6.00
2018-02-17T14:48:00.485Z,8.50
2018-02-17T14:49:05.739Z,10.00
2018-02-17T14:50:09.869Z,10.00
2018-02-17T14:51:15.084Z,8.50
2018-02-17T14:52:19.617Z,8.00
2018-02-17T14:53:25.410Z,9.50
2018-02-17T14:54:30.898Z,8.00
2018-02-17T14:55:36.259Z,9.00
2018-02-17T14:56:41.795Z,8.00
2018-02-17T14:57:49.109Z,6.00
2018-02-17T14:58:56.046Z,8.50
2018-02-17T15:00:02.139Z,6.50
2018-02-17T15:01:09.436Z,11.00
2018-02-17T15:02:13.167Z,8.00
2018-02-17T15:03:17.948Z,8.00
2018-02-17T15:04:23.353Z,9.50
2018-02-17T15:05:28.456Z,8.50
2018-02-17T15:06:34.146Z,10.00
2018-02-17T15:07:39.678Z,6.00
2018-02-17T15:08:49.636Z,6.00
2018-02-17T15:09:57.157Z,8.00
2018-02-17T15:11:02.735Z,7.00
2018-02-17T15:12:10.755Z,6.00
2018-02-17T15:13:16.283Z,8.00
2018-02-17T15:14:20.523Z,6.50
2018-02-17T15:15:26.897Z,9.50
2018-02-17T15:16:32.374Z,7.50
2018-02-17T15:17:41.394Z,7.50
2018-02-17T15:18:50.215Z,6.00
2018-02-17T15:19:59.500Z,6.00
2018-02-17T15:21:05.765Z,4.00
2018-02-17T15:22:15.060Z,8.00
2018-02-17T15:23:22.077Z,7.50
2018-02-17T15:24:29.723Z,8.50
2018-02-17T15:25:35.800Z,8.00
2018-02-17T15:26:41.077Z,6.00
2018-02-17T15:27:46.323Z,8.00
2018-02-17T15:28:53.956Z,8.00
2018-02-17T15:30:03.952Z,6.00
2018-02-17T15:31:09.740Z,6.00
2018-02-17T15:32:16.708Z,6.00
2018-02-17T15:33:22.660Z,8.00
2018-02-17T15:34:29.322Z,8.00
2018-02-17T15:35:35.849Z,10.00
2018-02-17T15:36:43.453Z,9.00
2018-02-17T15:37:50.902Z,8.00
2018-02-17T15:38:58.383Z,10.00
2018-02-17T15:40:04.372Z,8.50
2018-02-17T15:41:12.007Z,9.50
2018-02-17T15:42:19.151Z,6.00
2018-02-17T15:43:26.486Z,6.50
2018-02-17T15:44:35.113Z,10.00
2018-02-17T15:45:43.235Z,8.00
2018-02-17T15:46:54.402Z,10.00
2018-02-17T15:48:03.519Z,8.50
2018-02-17T15:49:10.386Z,11.00
2018-02-17T15:50:16.047Z,9.00
2018-02-17T15:51:25.273Z,10.00
2018-02-17T15:52:32.618Z,9.50
2018-02-17T15:53:39.457Z,10.50
2018-02-17T15:54:46.449Z,10.50
2018-02-17T15:55:53.986Z,8.00
2018-02-17T15:57:03.328Z,12.00
2018-02-17T15:58:10.596Z,8.00
2018-02-17T15:59:18.028Z,10.00
2018-02-17T16:00:24.536Z,11.50
2018-02-17T16:01:31.151Z,10.00
2018-02-17T16:02:36.694Z,10.00
2018-02-17T16:03:44.584Z,9.00
2018-02-17T16:04:52.200Z,9.50
2018-02-17T16:06:01.467Z,10.50
2018-02-17T16:07:10.307Z,9.50
2018-02-17T16:08:18.228Z,10.00
2018-02-17T16:09:23.756Z,11.00
2018-02-17T16:11:44.153Z,10.50
2018-02-17T16:12:51.350Z,9.50
2018-02-17T16:13:57.436Z,11.00
2018-02-17T16:15:04.037Z,9.50
2018-02-17T16:16:09.804Z,9.50
2018-02-17T16:17:15.237Z,10.00
2018-02-17T16:18:21.692Z,8.00
2018-02-17T16:19:29.243Z,9.50
2018-02-17T16:20:35.118Z,7.00
2018-02-17T16:21:43.698Z,10.00
2018-02-17T16:22:50.093Z,8.00
2018-02-17T16:24:00.009Z,10.00
2018-02-17T16:25:06.855Z,8.00
2018-02-17T16:26:12.665Z,7.50
2018-02-17T16:27:21.806Z,12.00
2018-02-17T16:28:28.420Z,7.00
2018-02-17T16:29:34.610Z,9.50
2018-02-17T16:30:42.470Z,8.00
2018-02-17T16:31:50.140Z,9.00
2018-02-17T16:32:55.670Z,8.00
2018-02-17T16:34:04.055Z,8.00
2018-02-17T16:35:12.412Z,11.50
2018-02-17T16:36:18.998Z,9.50
2018-02-17T16:37:25.706Z,11.50
2018-02-17T16:38:31.347Z,8.50
2018-02-17T16:39:36.912Z,11.00
2018-02-17T16:40:43.294Z,10.00
2018-02-17T16:41:49.156Z,8.00
2018-02-17T16:42:54.713Z,7.50
2018-02-17T16:44:00.324Z,9.50
2018-02-17T16:45:05.658Z,10.00
2018-02-17T16:46:11.548Z,9.50
2018-02-17T16:47:18.799Z,10.00
2018-02-17T16:48:24.222Z,10.50
2018-02-17T16:49:34.365Z,12.50
2018-02-17T16:50:42.074Z,10.00
2018-02-17T16:51:50.120Z,10.00
2018-02-17T16:52:56.175Z,11.00
2018-02-17T16:54:01.494Z,12.00